Time;durP1;ratioP1;P1;durP2;ratioP2;P2;SDS_P1;SDS_P2;PMS_P1;PMS_P2;Temp;Humidity;BMP_temperature;BMP_pressure;BME280_temperature;BME280_humidity;BME280_pressure;Samples;Min_cycle;Max_cycle;Signal;HPM_P1;HPM_P2
2023/03/25 00:02:19;;;;;;;1.77;0.98;;;;;;;;;;4945448;29;20047;-70
2023/03/25 00:04:49;;;;;;;2.80;0.90;;;;;;;;;;4944277;29;20050;-70
2023/03/25 00:07:15;;;;;;;2.38;0.95;;;;;;;;;;4945506;29;20133;-70
2023/03/25 00:09:41;;;;;;;5.10;1.85;;;;;;;;;;4927611;29;20051;-70
2023/03/25 00:12:06;;;;;;;2.30;0.90;;;;;;;;;;4943807;28;20090;-70
2023/03/25 00:14:32;;;;;;;1.52;0.90;;;;;;;;;;4928227;29;20051;-70
2023/03/25 00:16:57;;;;;;;1.30;1.17;;;;;;;;;;4941738;29;20039;-70
2023/03/25 00:19:24;;;;;;;2.13;0.90;;;;;;;;;;4943812;29;20070;-70
2023/03/25 00:21:50;;;;;;;1.08;0.98;;;;;;;;;;4945051;29;20058;-70
2023/03/25 00:24:16;;;;;;;1.77;1.02;;;;;;;;;;4944468;29;20524;-72
2023/03/25 00:26:44;;;;;;;3.72;0.93;;;;;;;;;;4943998;29;20047;-72
2023/03/25 00:29:11;;;;;;;2.28;0.82;;;;;;;;;;4944726;29;20158;-71
2023/03/25 00:31:36;;;;;;;1.10;1.00;;;;;;;;;;4944294;29;20051;-70
2023/03/25 00:34:02;;;;;;;1.83;0.90;;;;;;;;;;4944895;29;20046;-70
2023/03/25 00:36:28;;;;;;;2.03;0.80;;;;;;;;;;4943660;29;20047;-72
2023/03/25 00:38:53;;;;;;;1.85;0.80;;;;;;;;;;4944663;29;20058;-72
2023/03/25 00:41:24;;;;;;;7.40;0.80;;;;;;;;;;4943626;29;20095;-70
2023/03/25 00:43:55;;;;;;;1.33;0.88;;;;;;;;;;4944431;29;20077;-72
2023/03/25 00:46:22;;;;;;;2.72;0.65;;;;;;;;;;4944070;29;20055;-71
2023/03/25 00:48:48;;;;;;;3.72;0.80;;;;;;;;;;4943612;28;20114;-71
2023/03/25 00:51:18;;;;;;;1.40;0.80;;;;;;;;;;4911555;29;20058;-71
2023/03/25 00:53:45;;;;;;;2.72;0.80;;;;;;;;;;4927089;29;20134;-71
2023/03/25 00:56:13;;;;;;;1.83;0.80;;;;;;;;;;4926530;29;20502;-71
2023/03/25 00:58:39;;;;;;;1.65;0.88;;;;;;;;;;4926268;29;20043;-72
2023/03/25 01:01:14;;;;;;;1.42;0.70;;;;;;;;;;4927114;29;20111;-71
2023/03/25 01:03:42;;;;;;;1.60;0.70;;;;;;;;;;4942179;29;20162;-71
2023/03/25 01:06:13;;;;;;;1.30;0.90;;;;;;;;;;4927337;29;20051;-71
2023/03/25 01:08:40;;;;;;;2.40;0.80;;;;;;;;;;4927380;29;20043;-70
2023/03/25 01:11:15;;;;;;;1.88;0.80;;;;;;;;;;4943557;29;20131;-71
2023/03/25 01:13:40;;;;;;;2.70;0.90;;;;;;;;;;4942463;29;20581;-70
2023/03/25 01:16:07;;;;;;;1.15;0.63;;;;;;;;;;4926056;29;20058;-71
2023/03/25 01:18:36;;;;;;;1.23;0.52;;;;;;;;;;4942455;28;20062;-70
2023/03/25 01:21:03;;;;;;;0.60;0.60;;;;;;;;;;4942092;29;20466;-70
2023/03/25 01:23:29;;;;;;;1.38;0.70;;;;;;;;;;4940522;28;20083;-72
2023/03/25 01:25:54;;;;;;;3.47;0.95;;;;;;;;;;4942184;29;20597;-72
2023/03/25 01:28:20;;;;;;;3.92;0.80;;;;;;;;;;4943502;29;20502;-72
2023/03/25 01:30:45;;;;;;;0.73;0.60;;;;;;;;;;4926871;29;20035;-71
2023/03/25 01:33:11;;;;;;;1.85;0.80;;;;;;;;;;4926403;29;20050;-71
2023/03/25 01:35:36;;;;;;;1.05;0.70;;;;;;;;;;4943604;29;20078;-72
2023/03/25 01:38:03;;;;;;;1.42;0.70;;;;;;;;;;4943426;29;20054;-72
2023/03/25 01:40:29;;;;;;;1.75;0.50;;;;;;;;;;4943668;29;20052;-72
2023/03/25 01:42:54;;;;;;;1.20;0.60;;;;;;;;;;4926278;29;20047;-70
2023/03/25 01:45:20;;;;;;;2.28;0.68;;;;;;;;;;4948646;28;20047;-71
2023/03/25 01:47:48;;;;;;;0.63;0.60;;;;;;;;;;4925468;29;20664;-71
2023/03/25 01:50:14;;;;;;;2.13;1.00;;;;;;;;;;4925767;29;20055;-71
2023/03/25 01:52:45;;;;;;;2.70;0.75;;;;;;;;;;4926470;29;20075;-71
2023/03/25 01:55:11;;;;;;;3.80;0.70;;;;;;;;;;4926144;29;20115;-71
2023/03/25 01:57:42;;;;;;;5.25;0.77;;;;;;;;;;4942920;29;20059;-71
2023/03/25 02:00:09;;;;;;;4.22;0.98;;;;;;;;;;4940062;29;20057;-71
2023/03/25 02:02:39;;;;;;;3.50;1.10;;;;;;;;;;4943427;29;20047;-71
2023/03/25 02:05:16;;;;;;;8.55;0.93;;;;;;;;;;4942904;29;20051;-71
2023/03/25 02:07:46;;;;;;;1.23;0.70;;;;;;;;;;4943017;29;20055;-71
2023/03/25 02:10:13;;;;;;;2.95;0.80;;;;;;;;;;4924197;29;20058;-71
2023/03/25 02:12:39;;;;;;;3.15;0.70;;;;;;;;;;4943259;29;20051;-71
2023/03/25 02:15:07;;;;;;;0.93;0.65;;;;;;;;;;4942254;29;20054;-72
2023/03/25 02:17:36;;;;;;;2.53;0.80;;;;;;;;;;4942446;29;20214;-72
2023/03/25 02:20:13;;;;;;;1.50;0.60;;;;;;;;;;4943201;29;20050;-71
2023/03/25 02:23:01;;;;;;;1.92;0.70;;;;;;;;;;4943070;29;20101;-71
2023/03/25 02:25:46;;;;;;;1.65;0.80;;;;;;;;;;4942105;29;20039;-71
2023/03/25 02:28:28;;;;;;;2.05;0.80;;;;;;;;;;4925325;29;20054;-71
2023/03/25 02:31:12;;;;;;;3.70;0.80;;;;;;;;;;4921853;29;20407;-71
2023/03/25 02:33:56;;;;;;;3.15;0.80;;;;;;;;;;4941746;29;20055;-72
2023/03/25 02:37:00;;;;;;;1.90;0.73;;;;;;;;;;4941015;29;20583;-71
2023/03/25 02:39:53;;;;;;;4.70;0.52;;;;;;;;;;4924578;29;20924;-71
2023/03/25 02:42:24;;;;;;;4.68;0.77;;;;;;;;;;4924732;29;20070;-71
2023/03/25 02:45:06;;;;;;;3.55;0.60;;;;;;;;;;4924953;29;20585;-70
2023/03/25 02:47:40;;;;;;;1.75;0.55;;;;;;;;;;4940658;29;20494;-71
2023/03/25 02:50:12;;;;;;;0.57;0.50;;;;;;;;;;4942088;29;20103;-70
2023/03/25 02:52:43;;;;;;;1.92;0.70;;;;;;;;;;4942672;29;20050;-70
2023/03/25 02:55:13;;;;;;;2.15;0.88;;;;;;;;;;4941148;29;20521;-70
2023/03/25 02:57:44;;;;;;;2.95;1.00;;;;;;;;;;4924503;29;20446;-70
2023/03/25 03:00:14;;;;;;;1.33;0.75;;;;;;;;;;4941869;29;20047;-70
2023/03/25 03:03:02;;;;;;;1.35;0.47;;;;;;;;;;4940761;29;20043;-70
2023/03/25 03:05:34;;;;;;;2.38;0.77;;;;;;;;;;4923213;29;20051;-71
2023/03/25 03:08:22;;;;;;;2.70;0.40;;;;;;;;;;4942287;29;20058;-70
2023/03/25 03:10:47;;;;;;;1.40;0.77;;;;;;;;;;4942070;29;20163;-71
2023/03/25 03:13:27;;;;;;;2.53;0.52;;;;;;;;;;4942125;29;20051;-71
2023/03/25 03:16:02;;;;;;;3.65;0.65;;;;;;;;;;4921488;29;20721;-71
2023/03/25 03:18:36;;;;;;;1.15;0.57;;;;;;;;;;4940745;28;20510;-71
2023/03/25 03:21:31;;;;;;;1.40;0.70;;;;;;;;;;4941860;28;20050;-70
2023/03/25 03:24:20;;;;;;;2.58;0.63;;;;;;;;;;4899526;29;20081;-71
2023/03/25 03:27:07;;;;;;;3.25;0.90;;;;;;;;;;4940846;29;20047;-71
2023/03/25 03:29:47;;;;;;;1.52;0.40;;;;;;;;;;4941275;29;20133;-71
2023/03/25 03:32:19;;;;;;;1.55;0.63;;;;;;;;;;4942127;29;20050;-70
2023/03/25 03:34:50;;;;;;;2.58;0.90;;;;;;;;;;4941700;29;20047;-71
2023/03/25 03:37:26;;;;;;;4.33;0.77;;;;;;;;;;4941015;29;20047;-71
2023/03/25 03:39:53;;;;;;;1.95;1.08;;;;;;;;;;4924334;29;20101;-71
2023/03/25 03:42:36;;;;;;;0.95;0.63;;;;;;;;;;4941864;29;20043;-71
2023/03/25 03:45:11;;;;;;;1.55;0.73;;;;;;;;;;4941694;29;20058;-70
2023/03/25 03:47:41;;;;;;;0.80;0.45;;;;;;;;;;4940797;29;20047;-71
2023/03/25 03:50:13;;;;;;;3.10;0.70;;;;;;;;;;4940643;29;20047;-71
2023/03/25 03:52:49;;;;;;;6.83;0.90;;;;;;;;;;4941968;29;20051;-71
2023/03/25 03:55:31;;;;;;;2.38;0.98;;;;;;;;;;4941400;29;20107;-70
2023/03/25 03:58:03;;;;;;;5.00;0.68;;;;;;;;;;4924173;29;20138;-71
2023/03/25 04:00:36;;;;;;;1.58;0.70;;;;;;;;;;4940886;29;20403;-71
2023/03/25 04:03:23;;;;;;;1.45;0.47;;;;;;;;;;4941413;28;20060;-71
2023/03/25 04:06:09;;;;;;;0.45;0.45;;;;;;;;;;4918060;29;20846;-71
2023/03/25 04:08:45;;;;;;;0.80;0.68;;;;;;;;;;4941160;29;20081;-71
2023/03/25 04:11:18;;;;;;;6.03;0.75;;;;;;;;;;4940319;29;20067;-71
2023/03/25 04:13:48;;;;;;;1.85;0.68;;;;;;;;;;4941193;29;20127;-71
2023/03/25 04:16:13;;;;;;;3.55;0.47;;;;;;;;;;4941179;29;20044;-70
2023/03/25 04:18:39;;;;;;;2.10;0.60;;;;;;;;;;4941597;29;20421;-70
2023/03/25 04:21:05;;;;;;;4.53;1.00;;;;;;;;;;4941374;29;20118;-70
2023/03/25 04:23:30;;;;;;;6.18;0.63;;;;;;;;;;4939981;28;20134;-70
2023/03/25 04:25:56;;;;;;;2.45;0.70;;;;;;;;;;4941207;29;20091;-70
2023/03/25 04:28:25;;;;;;;3.53;0.65;;;;;;;;;;4941150;29;20055;-70
2023/03/25 04:30:54;;;;;;;1.85;0.80;;;;;;;;;;4939847;29;20047;-70
2023/03/25 04:33:24;;;;;;;3.85;0.70;;;;;;;;;;4940309;28;20055;-71
2023/03/25 04:35:50;;;;;;;1.08;0.50;;;;;;;;;;4944841;29;20399;-70
2023/03/25 04:38:19;;;;;;;1.58;0.60;;;;;;;;;;4943793;29;20074;-70
2023/03/25 04:40:45;;;;;;;2.95;0.73;;;;;;;;;;4944754;29;20391;-70
2023/03/25 04:43:12;;;;;;;1.10;0.47;;;;;;;;;;4943816;29;20865;-70
2023/03/25 04:45:38;;;;;;;3.22;0.55;;;;;;;;;;4943819;29;20142;-70
2023/03/25 04:48:04;;;;;;;1.63;0.50;;;;;;;;;;4944509;29;20134;-70
2023/03/25 04:50:31;;;;;;;1.42;0.60;;;;;;;;;;4944689;29;20597;-70
2023/03/25 04:52:59;;;;;;;4.03;0.77;;;;;;;;;;4944729;28;20153;-70
2023/03/25 04:55:25;;;;;;;1.52;0.55;;;;;;;;;;4943196;28;20098;-69
2023/03/25 04:57:52;;;;;;;2.05;0.60;;;;;;;;;;4944457;29;20055;-70
2023/03/25 05:00:23;;;;;;;2.15;0.90;;;;;;;;;;4944264;29;20051;-70
2023/03/25 05:02:52;;;;;;;3.05;0.73;;;;;;;;;;4944630;29;20130;-70
2023/03/25 05:05:22;;;;;;;1.95;0.55;;;;;;;;;;4942979;29;20058;-70
2023/03/25 05:07:49;;;;;;;3.50;0.85;;;;;;;;;;4944494;29;20050;-70
2023/03/25 05:10:16;;;;;;;4.97;0.70;;;;;;;;;;4944017;29;20048;-70
2023/03/25 05:12:43;;;;;;;3.30;1.02;;;;;;;;;;4944280;29;20138;-70
2023/03/25 05:15:10;;;;;;;3.88;0.88;;;;;;;;;;4943717;29;20648;-70
2023/03/25 05:17:36;;;;;;;2.28;0.70;;;;;;;;;;4942635;29;20050;-70
2023/03/25 05:20:05;;;;;;;1.90;0.70;;;;;;;;;;4944199;29;20533;-70
2023/03/25 05:22:30;;;;;;;3.17;0.75;;;;;;;;;;4944383;29;20138;-70
2023/03/25 05:24:56;;;;;;;1.08;0.60;;;;;;;;;;4943799;29;20252;-70
2023/03/25 05:27:21;;;;;;;5.70;0.98;;;;;;;;;;4942679;28;20047;-70
2023/03/25 05:29:46;;;;;;;1.75;0.63;;;;;;;;;;4943721;29;20051;-70
2023/03/25 05:32:16;;;;;;;2.30;0.73;;;;;;;;;;4944043;29;20046;-70
2023/03/25 05:34:47;;;;;;;2.20;0.80;;;;;;;;;;4943530;28;20446;-70
2023/03/25 05:37:13;;;;;;;1.60;0.60;;;;;;;;;;4944126;29;20102;-70
2023/03/25 05:39:39;;;;;;;4.00;1.05;;;;;;;;;;4942494;29;20059;-70
2023/03/25 05:42:05;;;;;;;1.40;0.50;;;;;;;;;;4943590;29;20055;-70
2023/03/25 05:44:30;;;;;;;1.23;0.40;;;;;;;;;;4941552;28;20569;-70
2023/03/25 05:46:59;;;;;;;2.70;0.47;;;;;;;;;;4943055;28;20062;-70
2023/03/25 05:49:25;;;;;;;1.95;0.55;;;;;;;;;;4942265;29;20086;-70
2023/03/25 05:51:54;;;;;;;1.48;0.70;;;;;;;;;;4943355;29;20082;-70
2023/03/25 05:54:23;;;;;;;2.33;0.57;;;;;;;;;;4926732;29;20055;-70
2023/03/25 05:56:49;;;;;;;1.15;0.55;;;;;;;;;;4942251;29;20063;-70
2023/03/25 05:59:15;;;;;;;1.08;0.60;;;;;;;;;;4941255;28;20463;-70
2023/03/25 06:01:44;;;;;;;1.60;0.63;;;;;;;;;;4939097;29;20055;-71
2023/03/25 06:04:11;;;;;;;1.70;0.85;;;;;;;;;;4941229;29;20071;-70
2023/03/25 06:06:40;;;;;;;2.22;0.70;;;;;;;;;;4942020;29;20486;-70
2023/03/25 06:09:06;;;;;;;7.85;0.73;;;;;;;;;;4942156;29;20113;-69
2023/03/25 06:11:36;;;;;;;1.92;0.90;;;;;;;;;;4939167;29;20418;-68
2023/03/25 06:14:03;;;;;;;2.80;0.60;;;;;;;;;;4939264;29;20097;-70
2023/03/25 06:16:30;;;;;;;1.17;0.70;;;;;;;;;;4942348;29;20055;-68
2023/03/25 06:18:58;;;;;;;3.10;0.60;;;;;;;;;;4942220;29;20126;-70
2023/03/25 06:21:25;;;;;;;2.10;0.68;;;;;;;;;;4941786;29;20047;-70
2023/03/25 06:23:52;;;;;;;1.83;0.70;;;;;;;;;;4941657;29;20054;-70
2023/03/25 06:26:19;;;;;;;1.58;0.55;;;;;;;;;;4942663;29;20051;-71
2023/03/25 06:28:45;;;;;;;1.60;0.80;;;;;;;;;;4942456;29;20072;-70
2023/03/25 06:31:16;;;;;;;0.35;0.32;;;;;;;;;;4942173;29;20074;-70
2023/03/25 06:33:46;;;;;;;3.90;0.60;;;;;;;;;;4941103;29;20055;-68
2023/03/25 06:36:17;;;;;;;3.60;0.68;;;;;;;;;;4941362;29;20057;-70
2023/03/25 06:38:44;;;;;;;0.30;0.30;;;;;;;;;;4942373;29;20739;-70
2023/03/25 06:41:12;;;;;;;0.63;0.47;;;;;;;;;;4924520;29;20055;-71
2023/03/25 06:43:38;;;;;;;0.50;0.50;;;;;;;;;;4923761;29;20036;-70
2023/03/25 06:46:24;;;;;;;0.40;0.40;;;;;;;;;;4939315;28;20043;-70
2023/03/25 06:49:01;;;;;;;0.43;0.40;;;;;;;;;;4939985;29;20042;-70
2023/03/25 06:51:27;;;;;;;0.20;0.20;;;;;;;;;;4940606;29;20039;-70
2023/03/25 06:53:52;;;;;;;0.20;0.20;;;;;;;;;;4936136;29;20039;-70
2023/03/25 06:56:18;;;;;;;2.67;0.38;;;;;;;;;;4940274;28;20467;-69
2023/03/25 06:58:43;;;;;;;0.77;0.32;;;;;;;;;;4933355;28;20046;-69
2023/03/25 07:01:09;;;;;;;0.30;0.30;;;;;;;;;;4938357;29;20058;-69
2023/03/25 07:03:35;;;;;;;0.28;0.28;;;;;;;;;;4921318;29;20533;-69
2023/03/25 07:06:01;;;;;;;0.68;0.35;;;;;;;;;;4939506;29;20054;-69
2023/03/25 07:08:27;;;;;;;0.55;0.30;;;;;;;;;;4921564;29;20082;-70
2023/03/25 07:10:53;;;;;;;2.67;0.45;;;;;;;;;;4939602;29;20138;-69
2023/03/25 07:13:18;;;;;;;0.47;0.28;;;;;;;;;;4939421;29;20046;-70
2023/03/25 07:15:44;;;;;;;0.95;0.30;;;;;;;;;;4939296;29;20061;-69
2023/03/25 07:18:10;;;;;;;2.30;0.43;;;;;;;;;;4940016;29;20118;-70
2023/03/25 07:20:35;;;;;;;0.40;0.40;;;;;;;;;;4939254;29;20039;-70
2023/03/25 07:23:00;;;;;;;0.70;0.40;;;;;;;;;;4923333;29;20133;-70
2023/03/25 07:25:26;;;;;;;0.80;0.40;;;;;;;;;;4938733;29;20058;-69
2023/03/25 07:27:51;;;;;;;0.30;0.30;;;;;;;;;;4940879;29;20055;-69
2023/03/25 07:30:18;;;;;;;0.40;0.40;;;;;;;;;;4920732;29;20198;-69
2023/03/25 07:32:44;;;;;;;0.30;0.30;;;;;;;;;;4923655;29;20122;-69
2023/03/25 07:35:09;;;;;;;0.50;0.50;;;;;;;;;;4940384;29;20176;-70
2023/03/25 07:37:35;;;;;;;0.82;0.40;;;;;;;;;;4938785;29;20455;-69
2023/03/25 07:40:00;;;;;;;0.73;0.40;;;;;;;;;;4939171;28;20054;-69
2023/03/25 07:42:26;;;;;;;2.05;0.50;;;;;;;;;;4939459;29;20142;-69
2023/03/25 07:45:13;;;;;;;0.35;0.35;;;;;;;;;;4921598;29;20079;-69
2023/03/25 07:47:40;;;;;;;1.83;0.30;;;;;;;;;;4921882;29;20782;-69
2023/03/25 07:50:07;;;;;;;1.40;0.40;;;;;;;;;;4940186;29;20138;-69
2023/03/25 07:52:34;;;;;;;0.20;0.20;;;;;;;;;;4938780;29;20050;-69
2023/03/25 07:55:00;;;;;;;0.57;0.40;;;;;;;;;;4939098;29;20050;-68
2023/03/25 07:57:26;;;;;;;0.93;0.47;;;;;;;;;;4921180;29;20050;-69
2023/03/25 07:59:51;;;;;;;0.95;0.47;;;;;;;;;;4939616;29;20067;-68
2023/03/25 08:02:16;;;;;;;0.40;0.40;;;;;;;;;;4921958;29;20127;-69
2023/03/25 08:04:42;;;;;;;2.22;0.45;;;;;;;;;;4938526;29;21309;-69
2023/03/25 08:07:08;;;;;;;0.75;0.38;;;;;;;;;;4938739;29;20055;-68
2023/03/25 08:09:33;;;;;;;0.30;0.30;;;;;;;;;;4939752;28;20043;-68
2023/03/25 08:11:59;;;;;;;0.25;0.25;;;;;;;;;;4941741;29;20051;-69
2023/03/25 08:14:24;;;;;;;0.50;0.50;;;;;;;;;;4940095;28;20133;-69
2023/03/25 08:16:50;;;;;;;0.30;0.30;;;;;;;;;;4924856;29;20058;-69
2023/03/25 08:19:15;;;;;;;1.65;0.30;;;;;;;;;;4941898;29;20458;-68
2023/03/25 08:21:40;;;;;;;1.38;0.28;;;;;;;;;;4942840;29;20106;-69
2023/03/25 08:24:06;;;;;;;1.67;0.38;;;;;;;;;;4942533;29;20051;-69
2023/03/25 08:26:33;;;;;;;0.70;0.57;;;;;;;;;;4942893;29;20050;-69
2023/03/25 08:29:01;;;;;;;2.92;0.25;;;;;;;;;;4926002;29;20047;-69
2023/03/25 08:31:29;;;;;;;0.65;0.60;;;;;;;;;;4942528;29;20066;-69
2023/03/25 08:33:59;;;;;;;0.63;0.30;;;;;;;;;;4942383;29;20051;-69
2023/03/25 08:36:26;;;;;;;0.57;0.50;;;;;;;;;;4925571;29;20066;-69
2023/03/25 08:38:52;;;;;;;8.85;0.73;;;;;;;;;;4943293;29;20150;-69
2023/03/25 08:41:18;;;;;;;0.43;0.43;;;;;;;;;;4943229;29;20110;-69
2023/03/25 08:43:43;;;;;;;0.57;0.45;;;;;;;;;;4941247;29;20070;-69
2023/03/25 08:46:09;;;;;;;0.38;0.30;;;;;;;;;;4942251;29;20121;-68
2023/03/25 08:48:35;;;;;;;0.30;0.30;;;;;;;;;;4925380;29;20134;-69
2023/03/25 08:51:00;;;;;;;1.20;0.50;;;;;;;;;;4943296;29;20048;-69
2023/03/25 08:53:26;;;;;;;1.30;0.50;;;;;;;;;;4941943;29;20051;-69
2023/03/25 08:55:53;;;;;;;0.63;0.55;;;;;;;;;;4941207;29;20078;-69
2023/03/25 08:58:19;;;;;;;0.73;0.50;;;;;;;;;;4941665;29;20082;-69
2023/03/25 09:00:45;;;;;;;0.75;0.30;;;;;;;;;;4941329;29;20593;-69
2023/03/25 09:03:13;;;;;;;1.00;0.50;;;;;;;;;;4942993;29;20170;-69
2023/03/25 09:05:39;;;;;;;0.47;0.30;;;;;;;;;;4938383;29;20062;-69
2023/03/25 09:08:05;;;;;;;1.98;1.10;;;;;;;;;;4924478;29;20069;-69
2023/03/25 09:10:30;;;;;;;0.65;0.50;;;;;;;;;;4941971;29;20046;-69
2023/03/25 09:12:56;;;;;;;1.35;0.38;;;;;;;;;;4941743;29;20074;-69
2023/03/25 09:15:22;;;;;;;0.50;0.30;;;;;;;;;;4940855;29;20043;-69
2023/03/25 09:17:47;;;;;;;0.60;0.30;;;;;;;;;;4941377;29;20798;-69
2023/03/25 09:20:13;;;;;;;0.85;0.40;;;;;;;;;;4940870;28;20039;-69
2023/03/25 09:22:40;;;;;;;0.22;0.22;;;;;;;;;;4941713;29;20084;-69
2023/03/25 09:25:06;;;;;;;0.32;0.30;;;;;;;;;;4942214;29;20517;-69
2023/03/25 09:27:32;;;;;;;0.50;0.40;;;;;;;;;;4940231;29;20051;-70
2023/03/25 09:29:58;;;;;;;0.55;0.30;;;;;;;;;;4923419;29;20050;-69
2023/03/25 09:32:24;;;;;;;0.30;0.30;;;;;;;;;;4934278;28;20606;-69
2023/03/25 09:34:49;;;;;;;0.20;0.20;;;;;;;;;;4941633;29;20506;-69
2023/03/25 09:37:15;;;;;;;1.05;0.40;;;;;;;;;;4943546;29;20049;-69
2023/03/25 09:39:40;;;;;;;0.25;0.13;;;;;;;;;;4941959;29;20106;-70
2023/03/25 09:42:24;;;;;;;0.60;0.38;;;;;;;;;;4942834;29;20058;-70
2023/03/25 09:45:10;;;;;;;0.65;0.50;;;;;;;;;;4943302;29;20063;-70
2023/03/25 09:47:35;;;;;;;1.15;0.40;;;;;;;;;;4922431;29;20050;-70
2023/03/25 09:50:05;;;;;;;0.63;0.30;;;;;;;;;;4943785;29;20059;-70
2023/03/25 09:52:43;;;;;;;2.67;0.52;;;;;;;;;;4942072;29;20585;-69
2023/03/25 09:55:14;;;;;;;1.35;0.68;;;;;;;;;;4943735;29;20722;-70
2023/03/25 09:57:47;;;;;;;2.95;0.60;;;;;;;;;;4942985;29;20388;-69
2023/03/25 10:00:24;;;;;;;4.63;0.65;;;;;;;;;;4943260;29;20051;-70
2023/03/25 10:03:04;;;;;;;0.98;0.68;;;;;;;;;;4942229;29;20530;-70
2023/03/25 10:05:38;;;;;;;2.28;0.82;;;;;;;;;;4942555;29;20097;-70
2023/03/25 10:08:31;;;;;;;1.05;0.63;;;;;;;;;;4943394;29;20150;-70
2023/03/25 10:11:11;;;;;;;2.70;0.60;;;;;;;;;;4942807;29;20405;-69
2023/03/25 10:13:36;;;;;;;1.70;0.80;;;;;;;;;;4941326;29;20102;-70
2023/03/25 10:16:30;;;;;;;1.10;0.65;;;;;;;;;;4942380;29;20919;-70
2023/03/25 10:19:23;;;;;;;0.50;0.40;;;;;;;;;;4942772;29;20047;-70
2023/03/25 10:22:04;;;;;;;2.55;0.60;;;;;;;;;;4942072;29;20063;-70
2023/03/25 10:24:31;;;;;;;2.15;0.80;;;;;;;;;;4941619;29;20047;-70
2023/03/25 10:27:01;;;;;;;3.70;0.50;;;;;;;;;;4939228;28;20473;-70
2023/03/25 10:29:36;;;;;;;2.65;0.93;;;;;;;;;;4938109;29;20055;-70
2023/03/25 10:32:14;;;;;;;1.75;0.85;;;;;;;;;;4940179;28;20059;-69
2023/03/25 10:34:45;;;;;;;4.45;1.13;;;;;;;;;;4940742;29;20047;-69
2023/03/25 10:37:14;;;;;;;3.25;0.75;;;;;;;;;;4941309;29;20062;-69
2023/03/25 10:39:44;;;;;;;1.00;0.50;;;;;;;;;;4940850;29;20051;-70
2023/03/25 10:42:30;;;;;;;1.60;0.90;;;;;;;;;;4942472;29;20066;-69
2023/03/25 10:44:56;;;;;;;1.10;0.20;;;;;;;;;;4941010;29;20070;-70
2023/03/25 10:47:27;;;;;;;1.67;0.52;;;;;;;;;;4940678;29;20075;-70
2023/03/25 10:49:54;;;;;;;1.13;0.57;;;;;;;;;;4942351;29;20110;-70
2023/03/25 10:52:19;;;;;;;1.55;0.52;;;;;;;;;;4942319;29;20043;-70
2023/03/25 10:54:49;;;;;;;0.95;0.65;;;;;;;;;;4942475;28;20070;-70
2023/03/25 10:57:22;;;;;;;2.42;0.60;;;;;;;;;;4941704;29;20039;-69
2023/03/25 10:59:55;;;;;;;1.10;0.60;;;;;;;;;;4940814;29;20058;-69
2023/03/25 11:02:26;;;;;;;2.33;0.75;;;;;;;;;;4941709;29;20051;-69
2023/03/25 11:04:56;;;;;;;3.50;0.70;;;;;;;;;;4941941;29;20513;-70
2023/03/25 11:07:25;;;;;;;1.05;0.40;;;;;;;;;;4940080;29;20065;-70
2023/03/25 11:09:50;;;;;;;0.63;0.30;;;;;;;;;;4942024;29;20056;-71
2023/03/25 11:12:21;;;;;;;1.25;0.60;;;;;;;;;;4942079;29;20051;-71
2023/03/25 11:14:55;;;;;;;0.77;0.50;;;;;;;;;;4941836;29;20047;-71
2023/03/25 11:17:24;;;;;;;0.30;0.30;;;;;;;;;;4941388;29;20065;-76
2023/03/25 11:19:58;;;;;;;1.30;0.50;;;;;;;;;;4940122;29;20499;-70
2023/03/25 11:22:27;;;;;;;0.60;0.52;;;;;;;;;;4940811;29;20063;-70
2023/03/25 11:25:01;;;;;;;0.40;0.40;;;;;;;;;;4941379;28;20054;-71
2023/03/25 11:27:29;;;;;;;0.60;0.40;;;;;;;;;;4940390;29;20067;-71
2023/03/25 11:30:00;;;;;;;1.85;0.70;;;;;;;;;;4939963;28;20058;-71
2023/03/25 11:32:37;;;;;;;0.68;0.40;;;;;;;;;;4941668;29;20055;-70
2023/03/25 11:35:15;;;;;;;0.77;0.50;;;;;;;;;;4941896;29;20050;-70
2023/03/25 11:37:55;;;;;;;0.70;0.52;;;;;;;;;;4941441;28;20051;-72
2023/03/25 11:40:21;;;;;;;0.50;0.50;;;;;;;;;;4940659;29;20055;-71
2023/03/25 11:42:58;;;;;;;0.50;0.47;;;;;;;;;;4924851;29;20058;-71
2023/03/25 11:45:44;;;;;;;0.47;0.47;;;;;;;;;;4942061;29;20047;-71
2023/03/25 11:48:19;;;;;;;0.98;0.50;;;;;;;;;;4944772;29;20059;-71
2023/03/25 11:50:51;;;;;;;1.15;0.55;;;;;;;;;;4944836;29;20039;-71
2023/03/25 11:53:17;;;;;;;0.25;0.25;;;;;;;;;;4943630;29;20141;-73
2023/03/25 11:55:46;;;;;;;2.60;0.30;;;;;;;;;;4945228;29;20055;-71
2023/03/25 11:58:17;;;;;;;0.43;0.35;;;;;;;;;;4945982;29;20155;-71
2023/03/25 12:00:47;;;;;;;2.67;0.40;;;;;;;;;;4945319;29;20145;-71
2023/03/25 12:03:13;;;;;;;0.40;0.30;;;;;;;;;;4945451;29;20058;-70
2023/03/25 12:05:40;;;;;;;0.90;0.30;;;;;;;;;;4945120;29;20055;-70
2023/03/25 12:08:05;;;;;;;0.20;0.20;;;;;;;;;;4945440;29;20537;-70
2023/03/25 12:10:31;;;;;;;0.43;0.20;;;;;;;;;;4943115;29;20050;-71
2023/03/25 12:13:08;;;;;;;0.50;0.20;;;;;;;;;;4945384;29;20887;-71
2023/03/25 12:15:45;;;;;;;0.68;0.40;;;;;;;;;;4943866;28;20050;-71
2023/03/25 12:18:37;;;;;;;0.30;0.30;;;;;;;;;;4944273;29;20247;-71
2023/03/25 12:21:02;;;;;;;0.40;0.40;;;;;;;;;;4943876;29;20083;-71
2023/03/25 12:23:30;;;;;;;2.05;0.30;;;;;;;;;;4943674;29;20130;-71
2023/03/25 12:25:59;;;;;;;0.20;0.20;;;;;;;;;;4943796;29;20078;-71
2023/03/25 12:28:36;;;;;;;0.30;0.20;;;;;;;;;;4944911;29;20047;-71
2023/03/25 12:31:14;;;;;;;0.30;0.30;;;;;;;;;;4944978;29;20070;-71
2023/03/25 12:34:11;;;;;;;0.30;0.30;;;;;;;;;;4943475;28;20051;-71
2023/03/25 12:36:47;;;;;;;0.30;0.30;;;;;;;;;;4942480;29;20145;-71
2023/03/25 12:39:22;;;;;;;1.45;0.38;;;;;;;;;;4944767;29;20074;-71
2023/03/25 12:41:55;;;;;;;0.30;0.30;;;;;;;;;;4944546;29;20063;-71
2023/03/25 12:44:41;;;;;;;0.20;0.20;;;;;;;;;;4943533;28;20050;-70
2023/03/25 12:47:33;;;;;;;2.97;0.60;;;;;;;;;;4940618;29;20051;-71
2023/03/25 12:50:34;;;;;;;;;;;;;;;;;;4931169;29;20051;-71
2023/03/25 12:53:22;;;;;;;2.50;0.40;;;;;;;;;;4860678;29;19938;-71
2023/03/25 12:56:18;;;;;;;0.73;0.35;;;;;;;;;;4936317;28;20074;-72
2023/03/25 12:59:01;;;;;;;0.98;0.50;;;;;;;;;;4942211;29;20074;-71
2023/03/25 13:01:33;;;;;;;0.20;0.20;;;;;;;;;;4941918;29;20051;-71
2023/03/25 13:04:25;;;;;;;1.02;0.30;;;;;;;;;;4943757;29;20513;-72
2023/03/25 13:06:59;;;;;;;0.43;0.40;;;;;;;;;;4944115;29;20907;-71
2023/03/25 13:09:45;;;;;;;0.40;0.40;;;;;;;;;;4942781;28;20051;-72
2023/03/25 13:12:55;;;;;;;0.20;0.20;;;;;;;;;;4943607;29;20043;-71
2023/03/25 13:15:28;;;;;;;0.45;0.45;;;;;;;;;;4937953;29;20055;-71
2023/03/25 13:18:20;;;;;;;0.30;0.30;;;;;;;;;;4943521;29;20051;-71
2023/03/25 13:21:02;;;;;;;0.30;0.30;;;;;;;;;;4938772;28;20055;-71
2023/03/25 13:23:32;;;;;;;0.30;0.30;;;;;;;;;;4943105;29;20065;-71
2023/03/25 13:26:07;;;;;;;0.30;0.30;;;;;;;;;;4926522;29;21021;-71
2023/03/25 13:28:39;;;;;;;0.40;0.30;;;;;;;;;;4944665;29;20122;-71
2023/03/25 13:31:07;;;;;;;;;;;;;;;;;;4943373;29;20043;-71
2023/03/25 13:33:37;;;;;;;3.60;0.20;;;;;;;;;;4943068;29;20037;-72
2023/03/25 13:36:14;;;;;;;0.30;0.30;;;;;;;;;;4943117;29;20051;-71
2023/03/25 13:38:55;;;;;;;1.27;0.40;;;;;;;;;;4941660;29;20475;-71
2023/03/25 13:41:24;;;;;;;0.45;0.30;;;;;;;;;;4942165;29;20083;-71
2023/03/25 13:43:49;;;;;;;0.30;0.30;;;;;;;;;;4942658;29;20595;-71
2023/03/25 13:46:22;;;;;;;0.25;0.25;;;;;;;;;;4938757;29;20066;-71
2023/03/25 13:49:06;;;;;;;0.30;0.30;;;;;;;;;;4939950;29;20050;-71
2023/03/25 13:51:32;;;;;;;0.20;0.20;;;;;;;;;;4939015;29;20051;-71
2023/03/25 13:54:11;;;;;;;0.28;0.28;;;;;;;;;;4936860;29;20141;-71
2023/03/25 13:56:45;;;;;;;0.43;0.32;;;;;;;;;;4939618;29;20051;-71
2023/03/25 13:59:31;;;;;;;1.33;0.20;;;;;;;;;;4942536;28;20062;-72
2023/03/25 14:02:20;;;;;;;0.20;0.20;;;;;;;;;;4910937;29;20055;-72
2023/03/25 14:05:19;;;;;;;0.73;0.20;;;;;;;;;;4942150;28;20055;-71
2023/03/25 14:08:09;;;;;;;0.20;0.20;;;;;;;;;;4941866;29;20130;-71
2023/03/25 14:10:53;;;;;;;0.70;0.30;;;;;;;;;;4941995;29;20047;-71
2023/03/25 14:13:30;;;;;;;1.20;0.35;;;;;;;;;;4943179;29;20498;-71
2023/03/25 14:16:08;;;;;;;0.70;0.20;;;;;;;;;;4915831;29;20134;-71
2023/03/25 14:18:42;;;;;;;0.30;0.30;;;;;;;;;;4943378;29;20050;-72
2023/03/25 14:21:20;;;;;;;0.88;0.20;;;;;;;;;;4943613;29;20063;-72
2023/03/25 14:23:47;;;;;;;0.20;0.20;;;;;;;;;;4941777;29;20129;-72
2023/03/25 14:26:16;;;;;;;0.65;0.30;;;;;;;;;;4941877;28;20062;-72
2023/03/25 14:28:43;;;;;;;0.77;0.40;;;;;;;;;;4942829;29;20059;-72
2023/03/25 14:31:59;;;;;;;0.75;0.30;;;;;;;;;;4930156;29;20052;-72
2023/03/25 14:34:25;;;;;;;0.20;0.20;;;;;;;;;;4941004;29;20150;-72
2023/03/25 14:36:51;;;;;;;0.45;0.38;;;;;;;;;;4940343;29;20807;-71
2023/03/25 14:39:28;;;;;;;1.30;0.40;;;;;;;;;;4939314;29;20106;-72
2023/03/25 14:41:55;;;;;;;0.77;0.35;;;;;;;;;;4922531;29;20142;-71
2023/03/25 14:44:21;;;;;;;0.28;0.20;;;;;;;;;;4941206;29;20254;-71
2023/03/25 14:46:46;;;;;;;0.20;0.20;;;;;;;;;;4923409;29;20189;-71
2023/03/25 14:49:21;;;;;;;1.20;0.30;;;;;;;;;;4939035;29;20123;-71
2023/03/25 14:51:55;;;;;;;0.30;0.30;;;;;;;;;;4940681;29;20061;-71
2023/03/25 14:54:33;;;;;;;0.50;0.38;;;;;;;;;;4941325;29;20051;-71
2023/03/25 14:57:08;;;;;;;0.38;0.35;;;;;;;;;;4939988;29;20063;-69
2023/03/25 14:59:41;;;;;;;0.85;0.50;;;;;;;;;;4938637;28;20126;-71
2023/03/25 15:02:21;;;;;;;0.30;0.30;;;;;;;;;;4924243;29;20077;-71
2023/03/25 15:05:16;;;;;;;1.35;0.30;;;;;;;;;;4942290;29;20051;-71
2023/03/25 15:07:42;;;;;;;0.68;0.40;;;;;;;;;;4941530;28;20129;-71
2023/03/25 15:10:19;;;;;;;0.95;0.30;;;;;;;;;;4941235;29;20166;-70